sensor_id;sensor_type;location;lat;lon;timestamp;pressure;altitude;pressure_sealevel;temperature;humidity
6506;BME280;3286;49.858;8.768;2023-11-22T00:00:12;99808.41;;;6.48;58.01
6506;BME280;3286;49.858;8.768;2023-11-22T00:02:40;99810.28;;;6.84;57.46
6506;BME280;3286;49.858;8.768;2023-11-22T00:05:07;99812.38;;;6.67;56.33
6506;BME280;3286;49.858;8.768;2023-11-22T00:07:34;99814.09;;;7.04;55.83
6506;BME280;3286;49.858;8.768;2023-11-22T00:10:02;99812.47;;;6.15;58.06
6506;BME280;3286;49.858;8.768;2023-11-22T00:12:30;99813.97;;;6.94;56.10
6506;BME280;3286;49.858;8.768;2023-11-22T00:15:01;99816.28;;;6.86;56.24
6506;BME280;3286;49.858;8.768;2023-11-22T00:17:29;99815.41;;;6.74;56.00
6506;BME280;3286;49.858;8.768;2023-11-22T00:19:56;99816.66;;;6.68;56.44
6506;BME280;3286;49.858;8.768;2023-11-22T00:22:23;99816.63;;;7.05;55.87
6506;BME280;3286;49.858;8.768;2023-11-22T00:24:51;99838.69;;;6.28;56.91
6506;BME280;3286;49.858;8.768;2023-11-22T00:27:17;99831.03;;;6.75;55.59
6506;BME280;3286;49.858;8.768;2023-11-22T00:29:44;99835.44;;;6.37;56.29
6506;BME280;3286;49.858;8.768;2023-11-22T00:32:11;99841.13;;;6.18;56.32
6506;BME280;3286;49.858;8.768;2023-11-22T00:34:38;99851.19;;;6.37;55.93
6506;BME280;3286;49.858;8.768;2023-11-22T00:37:06;99842.56;;;5.97;56.24
6506;BME280;3286;49.858;8.768;2023-11-22T00:39:32;99849.03;;;5.52;57.08
6506;BME280;3286;49.858;8.768;2023-11-22T00:41:59;99855.13;;;5.78;56.30
6506;BME280;3286;49.858;8.768;2023-11-22T00:44:25;99868.34;;;5.64;56.28
6506;BME280;3286;49.858;8.768;2023-11-22T00:46:53;99870.63;;;5.15;57.68
6506;BME280;3286;49.858;8.768;2023-11-22T00:49:20;99874.53;;;5.08;57.22
6506;BME280;3286;49.858;8.768;2023-11-22T00:51:47;99882.06;;;5.27;56.64
6506;BME280;3286;49.858;8.768;2023-11-22T00:54:15;99883.84;;;5.67;55.53
6506;BME280;3286;49.858;8.768;2023-11-22T00:56:42;99881.31;;;5.25;55.01
6506;BME280;3286;49.858;8.768;2023-11-22T00:59:09;99887.34;;;4.85;55.97
6506;BME280;3286;49.858;8.768;2023-11-22T01:01:35;99888.84;;;5.17;55.50
6506;BME280;3286;49.858;8.768;2023-11-22T01:04:02;99896.34;;;5.08;55.63
6506;BME280;3286;49.858;8.768;2023-11-22T01:06:30;99893.00;;;5.06;55.91
6506;BME280;3286;49.858;8.768;2023-11-22T01:08:57;99890.81;;;5.41;55.68
6506;BME280;3286;49.858;8.768;2023-11-22T01:11:25;99902.03;;;5.43;54.93
6506;BME280;3286;49.858;8.768;2023-11-22T01:13:52;99899.03;;;5.21;55.45
6506;BME280;3286;49.858;8.768;2023-11-22T01:16:19;99902.78;;;5.45;54.23
6506;BME280;3286;49.858;8.768;2023-11-22T01:18:45;99909.97;;;4.86;56.62
6506;BME280;3286;49.858;8.768;2023-11-22T01:21:12;99894.53;;;5.24;55.86
6506;BME280;3286;49.858;8.768;2023-11-22T01:23:39;99896.34;;;5.36;54.71
6506;BME280;3286;49.858;8.768;2023-11-22T01:26:06;99891.97;;;5.49;54.50
6506;BME280;3286;49.858;8.768;2023-11-22T01:28:33;99891.63;;;5.82;53.77
6506;BME280;3286;49.858;8.768;2023-11-22T01:31:00;99890.69;;;5.42;54.21
6506;BME280;3286;49.858;8.768;2023-11-22T01:33:27;99882.94;;;5.81;53.29
6506;BME280;3286;49.858;8.768;2023-11-22T01:35:54;99891.84;;;5.78;53.22
6506;BME280;3286;49.858;8.768;2023-11-22T01:38:21;99889.53;;;5.87;52.86
6506;BME280;3286;49.858;8.768;2023-11-22T01:40:48;99888.75;;;6.38;51.95
6506;BME280;3286;49.858;8.768;2023-11-22T01:43:17;99898.47;;;5.84;52.91
6506;BME280;3286;49.858;8.768;2023-11-22T01:45:45;99894.88;;;5.72;53.05
6506;BME280;3286;49.858;8.768;2023-11-22T01:48:12;99903.16;;;5.66;52.96
6506;BME280;3286;49.858;8.768;2023-11-22T01:50:40;99907.25;;;5.70;53.52
6506;BME280;3286;49.858;8.768;2023-11-22T01:53:08;99911.91;;;5.92;52.02
6506;BME280;3286;49.858;8.768;2023-11-22T01:55:35;99911.63;;;6.10;52.27
6506;BME280;3286;49.858;8.768;2023-11-22T01:58:02;99918.38;;;5.87;52.53
6506;BME280;3286;49.858;8.768;2023-11-22T02:00:32;99923.41;;;5.77;53.82
6506;BME280;3286;49.858;8.768;2023-11-22T02:03:03;99931.69;;;5.84;53.03
6506;BME280;3286;49.858;8.768;2023-11-22T02:05:29;99941.09;;;6.01;52.36
6506;BME280;3286;49.858;8.768;2023-11-22T02:07:57;99931.56;;;6.13;52.35
6506;BME280;3286;49.858;8.768;2023-11-22T02:10:23;99924.03;;;5.80;52.50
6506;BME280;3286;49.858;8.768;2023-11-22T02:12:50;99929.38;;;5.66;52.94
6506;BME280;3286;49.858;8.768;2023-11-22T02:15:17;99934.59;;;5.66;53.40
6506;BME280;3286;49.858;8.768;2023-11-22T02:17:44;99941.38;;;5.83;52.83
6506;BME280;3286;49.858;8.768;2023-11-22T02:20:12;99946.16;;;5.76;52.72
6506;BME280;3286;49.858;8.768;2023-11-22T02:22:43;99952.63;;;5.30;54.35
6506;BME280;3286;49.858;8.768;2023-11-22T02:25:11;99948.84;;;5.62;53.31
6506;BME280;3286;49.858;8.768;2023-11-22T02:27:38;99951.53;;;5.05;54.06
6506;BME280;3286;49.858;8.768;2023-11-22T02:30:06;99963.34;;;4.98;55.50
6506;BME280;3286;49.858;8.768;2023-11-22T02:32:33;99957.75;;;5.32;54.37
6506;BME280;3286;49.858;8.768;2023-11-22T02:35:00;99963.34;;;5.40;54.71
6506;BME280;3286;49.858;8.768;2023-11-22T02:37:26;99976.63;;;4.81;56.86
6506;BME280;3286;49.858;8.768;2023-11-22T02:39:57;99972.41;;;4.92;56.49
6506;BME280;3286;49.858;8.768;2023-11-22T02:42:28;99963.84;;;5.18;56.41
6506;BME280;3286;49.858;8.768;2023-11-22T02:44:54;99971.56;;;4.77;56.53
6506;BME280;3286;49.858;8.768;2023-11-22T02:47:22;99970.19;;;4.72;57.71
6506;BME280;3286;49.858;8.768;2023-11-22T02:49:49;99968.81;;;5.08;56.46
6506;BME280;3286;49.858;8.768;2023-11-22T02:52:15;99964.81;;;4.88;56.79
6506;BME280;3286;49.858;8.768;2023-11-22T02:54:43;99967.81;;;4.82;56.97
6506;BME280;3286;49.858;8.768;2023-11-22T02:57:10;99963.84;;;5.18;55.64
6506;BME280;3286;49.858;8.768;2023-11-22T02:59:41;99962.91;;;5.19;55.91
6506;BME280;3286;49.858;8.768;2023-11-22T03:02:08;99957.72;;;4.32;57.61
6506;BME280;3286;49.858;8.768;2023-11-22T03:04:34;99961.84;;;4.36;57.79
6506;BME280;3286;49.858;8.768;2023-11-22T03:07:01;99957.66;;;4.33;58.17
6506;BME280;3286;49.858;8.768;2023-11-22T03:09:27;99955.59;;;4.68;57.16
6506;BME280;3286;49.858;8.768;2023-11-22T03:11:55;99962.81;;;4.49;57.34
6506;BME280;3286;49.858;8.768;2023-11-22T03:14:21;99968.75;;;4.81;56.98
6506;BME280;3286;49.858;8.768;2023-11-22T03:16:50;99982.38;;;4.28;57.72
6506;BME280;3286;49.858;8.768;2023-11-22T03:19:17;99984.56;;;4.50;57.18
6506;BME280;3286;49.858;8.768;2023-11-22T03:21:44;99985.91;;;4.72;57.34
6506;BME280;3286;49.858;8.768;2023-11-22T03:24:11;99993.44;;;4.76;56.32
6506;BME280;3286;49.858;8.768;2023-11-22T03:26:38;99999.91;;;4.71;57.25
6506;BME280;3286;49.858;8.768;2023-11-22T03:29:05;100000.63;;;5.02;55.42
6506;BME280;3286;49.858;8.768;2023-11-22T03:31:31;100003.34;;;5.15;55.99
6506;BME280;3286;49.858;8.768;2023-11-22T03:33:59;100006.91;;;4.85;56.42
6506;BME280;3286;49.858;8.768;2023-11-22T03:36:26;100008.13;;;4.64;56.08
6506;BME280;3286;49.858;8.768;2023-11-22T03:38:52;100010.16;;;4.45;56.92
6506;BME280;3286;49.858;8.768;2023-11-22T03:41:19;100022.56;;;4.41;56.94
6506;BME280;3286;49.858;8.768;2023-11-22T03:43:46;100018.94;;;4.44;56.70
6506;BME280;3286;49.858;8.768;2023-11-22T03:46:13;100008.03;;;4.66;55.65
6506;BME280;3286;49.858;8.768;2023-11-22T03:48:39;100023.53;;;4.10;57.56
6506;BME280;3286;49.858;8.768;2023-11-22T03:51:07;100017.00;;;4.62;56.51
6506;BME280;3286;49.858;8.768;2023-11-22T03:53:34;100019.91;;;4.86;56.30
6506;BME280;3286;49.858;8.768;2023-11-22T03:56:01;100030.84;;;4.78;56.00
6506;BME280;3286;49.858;8.768;2023-11-22T03:58:27;100041.03;;;4.69;56.33
6506;BME280;3286;49.858;8.768;2023-11-22T04:00:54;100046.09;;;4.72;56.18
6506;BME280;3286;49.858;8.768;2023-11-22T04:03:20;100047.69;;;4.74;56.51
6506;BME280;3286;49.858;8.768;2023-11-22T04:05:48;100059.22;;;5.15;55.85
6506;BME280;3286;49.858;8.768;2023-11-22T04:08:16;100065.38;;;4.85;55.89
6506;BME280;3286;49.858;8.768;2023-11-22T04:10:42;100067.22;;;4.38;57.54
6506;BME280;3286;49.858;8.768;2023-11-22T04:13:09;100074.03;;;4.86;56.41
6506;BME280;3286;49.858;8.768;2023-11-22T04:15:36;100064.06;;;4.78;55.99
6506;BME280;3286;49.858;8.768;2023-11-22T04:18:02;100088.38;;;4.80;55.76
6506;BME280;3286;49.858;8.768;2023-11-22T04:20:29;100090.31;;;4.76;56.37
6506;BME280;3286;49.858;8.768;2023-11-22T04:22:56;100096.78;;;4.71;56.23
6506;BME280;3286;49.858;8.768;2023-11-22T04:25:24;100099.09;;;4.30;57.92
6506;BME280;3286;49.858;8.768;2023-11-22T04:27:50;100108.91;;;4.72;56.26
6506;BME280;3286;49.858;8.768;2023-11-22T04:30:17;100112.06;;;4.62;56.06
6506;BME280;3286;49.858;8.768;2023-11-22T04:32:43;100112.38;;;4.42;56.22
6506;BME280;3286;49.858;8.768;2023-11-22T04:35:10;100106.75;;;4.33;56.21
6506;BME280;3286;49.858;8.768;2023-11-22T04:37:40;100107.72;;;4.00;56.75
6506;BME280;3286;49.858;8.768;2023-11-22T04:40:08;100118.94;;;4.18;56.17
6506;BME280;3286;49.858;8.768;2023-11-22T04:42:38;100126.44;;;3.92;57.70
6506;BME280;3286;49.858;8.768;2023-11-22T04:45:05;100127.19;;;3.62;58.88
6506;BME280;3286;49.858;8.768;2023-11-22T04:47:32;100124.50;;;3.80;58.18
6506;BME280;3286;49.858;8.768;2023-11-22T04:49:59;100125.00;;;3.87;58.08
6506;BME280;3286;49.858;8.768;2023-11-22T04:52:25;100130.81;;;3.26;59.79
6506;BME280;3286;49.858;8.768;2023-11-22T04:54:52;100124.25;;;3.53;60.00
6506;BME280;3286;49.858;8.768;2023-11-22T04:57:19;100118.41;;;3.63;59.70
6506;BME280;3286;49.858;8.768;2023-11-22T04:59:47;100117.72;;;3.44;59.98
6506;BME280;3286;49.858;8.768;2023-11-22T05:02:13;100123.47;;;3.83;59.08
6506;BME280;3286;49.858;8.768;2023-11-22T05:04:41;100124.75;;;3.75;59.59
6506;BME280;3286;49.858;8.768;2023-11-22T05:07:09;100126.94;;;3.51;60.30
6506;BME280;3286;49.858;8.768;2023-11-22T05:09:35;100124.69;;;3.77;60.26
6506;BME280;3286;49.858;8.768;2023-11-22T05:12:02;100123.22;;;3.71;60.89
6506;BME280;3286;49.858;8.768;2023-11-22T05:14:29;100129.22;;;4.05;58.99
6506;BME280;3286;49.858;8.768;2023-11-22T05:16:57;100134.94;;;3.48;60.45
6506;BME280;3286;49.858;8.768;2023-11-22T05:19:24;100130.25;;;3.71;59.95
6506;BME280;3286;49.858;8.768;2023-11-22T05:21:51;100139.63;;;3.41;60.89
6506;BME280;3286;49.858;8.768;2023-11-22T05:24:17;100137.56;;;3.14;62.07
6506;BME280;3286;49.858;8.768;2023-11-22T05:26:44;100145.53;;;3.45;60.63
6506;BME280;3286;49.858;8.768;2023-11-22T05:29:11;100151.19;;;3.53;60.88
6506;BME280;3286;49.858;8.768;2023-11-22T05:31:38;100153.78;;;3.37;62.21
6506;BME280;3286;49.858;8.768;2023-11-22T05:34:06;100163.03;;;3.76;60.07
6506;BME280;3286;49.858;8.768;2023-11-22T05:36:33;100168.78;;;3.33;61.24
6506;BME280;3286;49.858;8.768;2023-11-22T05:39:00;100169.22;;;3.42;60.97
6506;BME280;3286;49.858;8.768;2023-11-22T05:41:29;100174.44;;;3.08;61.91
6506;BME280;3286;49.858;8.768;2023-11-22T05:43:56;100177.28;;;2.86;61.02
6506;BME280;3286;49.858;8.768;2023-11-22T05:46:23;100184.84;;;3.26;59.68
6506;BME280;3286;49.858;8.768;2023-11-22T05:48:51;100190.28;;;3.21;58.75
6506;BME280;3286;49.858;8.768;2023-11-22T05:51:19;100191.81;;;3.25;58.63
6506;BME280;3286;49.858;8.768;2023-11-22T05:53:46;100187.44;;;3.93;55.41
6506;BME280;3286;49.858;8.768;2023-11-22T05:56:13;100181.75;;;3.69;54.95
6506;BME280;3286;49.858;8.768;2023-11-22T05:58:40;100183.94;;;3.76;55.71
6506;BME280;3286;49.858;8.768;2023-11-22T06:01:07;100196.94;;;3.78;55.11
6506;BME280;3286;49.858;8.768;2023-11-22T06:03:35;100199.84;;;4.22;54.85
6506;BME280;3286;49.858;8.768;2023-11-22T06:06:04;100195.13;;;4.12;53.71
6506;BME280;3286;49.858;8.768;2023-11-22T06:08:32;100199.38;;;3.81;53.77
6506;BME280;3286;49.858;8.768;2023-11-22T06:10:59;100202.22;;;3.76;53.62
6506;BME280;3286;49.858;8.768;2023-11-22T06:13:26;100202.00;;;3.81;53.37
6506;BME280;3286;49.858;8.768;2023-11-22T06:15:53;100206.97;;;3.70;53.21
6506;BME280;3286;49.858;8.768;2023-11-22T06:18:19;100217.69;;;3.81;52.25
6506;BME280;3286;49.858;8.768;2023-11-22T06:20:46;100227.63;;;3.90;51.98
6506;BME280;3286;49.858;8.768;2023-11-22T06:23:13;100232.66;;;3.77;52.70
6506;BME280;3286;49.858;8.768;2023-11-22T06:25:41;100230.53;;;3.68;53.24
6506;BME280;3286;49.858;8.768;2023-11-22T06:28:09;100239.38;;;3.32;52.79
6506;BME280;3286;49.858;8.768;2023-11-22T06:30:35;100239.91;;;3.39;53.85
6506;BME280;3286;49.858;8.768;2023-11-22T06:33:02;100242.28;;;2.73;54.23
6506;BME280;3286;49.858;8.768;2023-11-22T06:35:31;100239.00;;;3.04;54.54
6506;BME280;3286;49.858;8.768;2023-11-22T06:37:58;100249.47;;;2.68;55.35
6506;BME280;3286;49.858;8.768;2023-11-22T06:40:24;100251.97;;;3.24;53.30
6506;BME280;3286;49.858;8.768;2023-11-22T06:42:52;100260.81;;;3.72;53.20
6506;BME280;3286;49.858;8.768;2023-11-22T06:45:19;100265.94;;;3.23;53.16
6506;BME280;3286;49.858;8.768;2023-11-22T06:47:46;100270.84;;;3.46;53.42
6506;BME280;3286;49.858;8.768;2023-11-22T06:50:13;100274.41;;;3.28;53.04
6506;BME280;3286;49.858;8.768;2023-11-22T06:52:41;100280.84;;;3.21;53.79
6506;BME280;3286;49.858;8.768;2023-11-22T06:55:09;100278.25;;;3.21;54.74
6506;BME280;3286;49.858;8.768;2023-11-22T06:57:36;100275.75;;;3.00;53.50
6506;BME280;3286;49.858;8.768;2023-11-22T07:00:06;100277.31;;;3.39;53.04
6506;BME280;3286;49.858;8.768;2023-11-22T07:02:34;100275.63;;;3.56;52.97
6506;BME280;3286;49.858;8.768;2023-11-22T07:05:01;100270.84;;;3.64;53.34
6506;BME280;3286;49.858;8.768;2023-11-22T07:07:30;100272.69;;;3.62;53.21
6506;BME280;3286;49.858;8.768;2023-11-22T07:09:56;100284.13;;;3.59;52.92
6506;BME280;3286;49.858;8.768;2023-11-22T07:12:23;100280.56;;;3.78;51.84
6506;BME280;3286;49.858;8.768;2023-11-22T07:14:50;100279.59;;;3.63;54.26
6506;BME280;3286;49.858;8.768;2023-11-22T07:17:18;100279.38;;;3.50;53.86
6506;BME280;3286;49.858;8.768;2023-11-22T07:19:47;100275.47;;;3.59;52.99
6506;BME280;3286;49.858;8.768;2023-11-22T07:22:13;100286.03;;;4.07;52.53
6506;BME280;3286;49.858;8.768;2023-11-22T07:24:42;100275.19;;;4.31;52.04
6506;BME280;3286;49.858;8.768;2023-11-22T07:27:10;100280.66;;;4.10;51.27
6506;BME280;3286;49.858;8.768;2023-11-22T07:29:37;100284.25;;;4.08;51.65
6506;BME280;3286;49.858;8.768;2023-11-22T07:32:05;100281.59;;;4.09;51.44
6506;BME280;3286;49.858;8.768;2023-11-22T07:34:34;100279.72;;;4.27;50.79
6506;BME280;3286;49.858;8.768;2023-11-22T07:37:01;100286.66;;;4.12;52.03
6506;BME280;3286;49.858;8.768;2023-11-22T07:39:28;100286.72;;;4.11;52.14
6506;BME280;3286;49.858;8.768;2023-11-22T07:41:54;100279.56;;;4.14;51.26
6506;BME280;3286;49.858;8.768;2023-11-22T07:44:21;100285.19;;;4.06;51.54
6506;BME280;3286;49.858;8.768;2023-11-22T07:46:49;100288.19;;;4.32;51.46
6506;BME280;3286;49.858;8.768;2023-11-22T07:49:16;100295.53;;;4.58;49.88
6506;BME280;3286;49.858;8.768;2023-11-22T07:51:45;100287.84;;;4.39;49.82
6506;BME280;3286;49.858;8.768;2023-11-22T07:54:11;100290.03;;;4.62;49.62
6506;BME280;3286;49.858;8.768;2023-11-22T07:56:40;100291.56;;;4.51;49.74
6506;BME280;3286;49.858;8.768;2023-11-22T07:59:08;100291.56;;;4.51;50.66
6506;BME280;3286;49.858;8.768;2023-11-22T08:01:35;100275.69;;;4.38;50.34
6506;BME280;3286;49.858;8.768;2023-11-22T08:04:03;100279.31;;;4.51;49.51
6506;BME280;3286;49.858;8.768;2023-11-22T08:06:30;100283.63;;;4.52;49.91
6506;BME280;3286;49.858;8.768;2023-11-22T08:08:58;100276.44;;;4.40;50.35
6506;BME280;3286;49.858;8.768;2023-11-22T08:11:26;100281.38;;;4.92;49.86
6506;BME280;3286;49.858;8.768;2023-11-22T08:13:53;100286.56;;;4.94;48.94
6506;BME280;3286;49.858;8.768;2023-11-22T08:16:20;100277.88;;;5.08;48.90
6506;BME280;3286;49.858;8.768;2023-11-22T08:18:47;100284.38;;;5.17;48.84
6506;BME280;3286;49.858;8.768;2023-11-22T08:21:13;100278.03;;;4.74;49.59
6506;BME280;3286;49.858;8.768;2023-11-22T08:23:40;100284.16;;;5.36;48.29
6506;BME280;3286;49.858;8.768;2023-11-22T08:26:08;100296.16;;;4.93;48.41
6506;BME280;3286;49.858;8.768;2023-11-22T08:28:37;100297.78;;;4.96;48.67
6506;BME280;3286;49.858;8.768;2023-11-22T08:31:04;100302.66;;;5.33;47.73
6506;BME280;3286;49.858;8.768;2023-11-22T08:33:34;100304.53;;;5.00;47.65
6506;BME280;3286;49.858;8.768;2023-11-22T08:36:01;100307.41;;;5.26;46.89
6506;BME280;3286;49.858;8.768;2023-11-22T08:38:29;100306.03;;;5.35;48.11
6506;BME280;3286;49.858;8.768;2023-11-22T08:40:58;100294.78;;;5.63;47.82
6506;BME280;3286;49.858;8.768;2023-11-22T08:43:26;100295.91;;;5.29;48.57
6506;BME280;3286;49.858;8.768;2023-11-22T08:45:53;100287.59;;;5.96;45.73
6506;BME280;3286;49.858;8.768;2023-11-22T08:48:20;100293.25;;;6.61;45.04
6506;BME280;3286;49.858;8.768;2023-11-22T08:50:47;100286.56;;;6.28;44.03
6506;BME280;3286;49.858;8.768;2023-11-22T08:53:14;100295.28;;;6.43;44.35
6506;BME280;3286;49.858;8.768;2023-11-22T08:55:43;100290.25;;;6.52;43.88
6506;BME280;3286;49.858;8.768;2023-11-22T08:58:10;100288.63;;;6.64;43.61
6506;BME280;3286;49.858;8.768;2023-11-22T09:00:38;100299.22;;;5.92;43.39
6506;BME280;3286;49.858;8.768;2023-11-22T09:03:06;100302.88;;;6.33;44.75
6506;BME280;3286;49.858;8.768;2023-11-22T09:05:33;100309.50;;;5.80;43.45
6506;BME280;3286;49.858;8.768;2023-11-22T09:08:00;100309.59;;;5.79;42.04
6506;BME280;3286;49.858;8.768;2023-11-22T09:10:26;100305.25;;;6.65;40.37
6506;BME280;3286;49.858;8.768;2023-11-22T09:12:53;100313.19;;;6.21;40.42
6506;BME280;3286;49.858;8.768;2023-11-22T09:15:19;100325.25;;;5.95;41.26
6506;BME280;3286;49.858;8.768;2023-11-22T09:17:53;100334.63;;;5.99;41.04
6506;BME280;3286;49.858;8.768;2023-11-22T09:20:20;100333.53;;;6.03;41.80
6506;BME280;3286;49.858;8.768;2023-11-22T09:22:48;100309.91;;;6.74;40.90
6506;BME280;3286;49.858;8.768;2023-11-22T09:25:15;100307.53;;;6.42;42.98
6506;BME280;3286;49.858;8.768;2023-11-22T09:27:44;100310.72;;;6.62;40.77
6506;BME280;3286;49.858;8.768;2023-11-22T09:30:14;100307.31;;;7.15;40.39
6506;BME280;3286;49.858;8.768;2023-11-22T09:32:58;100314.09;;;5.91;42.65
6506;BME280;3286;49.858;8.768;2023-11-22T09:35:25;100322.06;;;6.48;43.09
6506;BME280;3286;49.858;8.768;2023-11-22T09:37:54;100327.00;;;6.67;41.83
6506;BME280;3286;49.858;8.768;2023-11-22T09:40:21;100327.16;;;6.78;39.83
6506;BME280;3286;49.858;8.768;2023-11-22T09:42:48;100330.34;;;7.64;39.63
6506;BME280;3286;49.858;8.768;2023-11-22T09:45:19;100323.06;;;7.55;41.51
6506;BME280;3286;49.858;8.768;2023-11-22T09:47:47;100332.78;;;7.80;38.38
6506;BME280;3286;49.858;8.768;2023-11-22T09:50:19;100332.34;;;6.93;40.13
6506;BME280;3286;49.858;8.768;2023-11-22T09:52:50;100342.22;;;6.47;39.45
6506;BME280;3286;49.858;8.768;2023-11-22T09:55:20;100349.09;;;6.35;39.79
6506;BME280;3286;49.858;8.768;2023-11-22T09:57:48;100361.06;;;6.11;40.31
6506;BME280;3286;49.858;8.768;2023-11-22T10:00:16;100360.16;;;5.20;41.47
6506;BME280;3286;49.858;8.768;2023-11-22T10:02:44;100349.75;;;6.25;42.07
6506;BME280;3286;49.858;8.768;2023-11-22T10:05:11;100340.72;;;6.58;41.06
6506;BME280;3286;49.858;8.768;2023-11-22T10:07:39;100343.31;;;6.00;41.64
6506;BME280;3286;49.858;8.768;2023-11-22T10:10:07;100339.47;;;6.63;42.96
6506;BME280;3286;49.858;8.768;2023-11-22T10:12:36;100345.97;;;6.58;41.62
6506;BME280;3286;49.858;8.768;2023-11-22T10:15:12;100349.16;;;6.48;40.26
6506;BME280;3286;49.858;8.768;2023-11-22T10:17:39;100349.84;;;6.08;43.04
6506;BME280;3286;49.858;8.768;2023-11-22T10:20:06;100348.88;;;5.50;42.77
6506;BME280;3286;49.858;8.768;2023-11-22T10:22:45;100354.38;;;5.90;41.57
6506;BME280;3286;49.858;8.768;2023-11-22T10:25:13;100365.94;;;5.41;41.88
6506;BME280;3286;49.858;8.768;2023-11-22T10:27:39;100370.91;;;4.51;42.75
6506;BME280;3286;49.858;8.768;2023-11-22T10:30:08;100372.94;;;5.57;43.10
6506;BME280;3286;49.858;8.768;2023-11-22T10:32:37;100374.22;;;5.94;42.44
6506;BME280;3286;49.858;8.768;2023-11-22T10:35:04;100379.72;;;4.66;43.58
6506;BME280;3286;49.858;8.768;2023-11-22T10:37:33;100367.88;;;4.59;44.07
6506;BME280;3286;49.858;8.768;2023-11-22T10:40:01;100377.63;;;4.39;45.75
6506;BME280;3286;49.858;8.768;2023-11-22T10:42:30;100384.94;;;4.66;44.86
6506;BME280;3286;49.858;8.768;2023-11-22T10:44:59;100385.69;;;5.32;44.47
6506;BME280;3286;49.858;8.768;2023-11-22T10:47:29;100388.56;;;5.58;42.62
6506;BME280;3286;49.858;8.768;2023-11-22T10:49:56;100382.59;;;4.93;42.79
6506;BME280;3286;49.858;8.768;2023-11-22T10:52:27;100380.91;;;5.39;41.42
6506;BME280;3286;49.858;8.768;2023-11-22T10:55:01;100389.34;;;4.98;42.66
6506;BME280;3286;49.858;8.768;2023-11-22T10:57:31;100396.59;;;5.08;43.63
6506;BME280;3286;49.858;8.768;2023-11-22T11:00:00;100398.03;;;5.30;44.18
6506;BME280;3286;49.858;8.768;2023-11-22T11:02:32;100396.53;;;5.57;43.41
6506;BME280;3286;49.858;8.768;2023-11-22T11:05:06;100396.25;;;5.61;42.15
6506;BME280;3286;49.858;8.768;2023-11-22T11:07:40;100390.91;;;5.93;41.17
6506;BME280;3286;49.858;8.768;2023-11-22T11:10:11;100390.66;;;5.37;42.57
6506;BME280;3286;49.858;8.768;2023-11-22T11:12:37;100397.47;;;5.86;42.46
6506;BME280;3286;49.858;8.768;2023-11-22T11:15:05;100404.38;;;6.03;42.43
6506;BME280;3286;49.858;8.768;2023-11-22T11:17:33;100413.38;;;5.53;42.60
6506;BME280;3286;49.858;8.768;2023-11-22T11:20:00;100423.97;;;5.19;42.43
6506;BME280;3286;49.858;8.768;2023-11-22T11:22:27;100429.38;;;5.32;41.70
6506;BME280;3286;49.858;8.768;2023-11-22T11:25:00;100422.81;;;5.86;42.64
6506;BME280;3286;49.858;8.768;2023-11-22T11:27:33;100426.53;;;5.67;41.62
6506;BME280;3286;49.858;8.768;2023-11-22T11:30:00;100431.72;;;5.53;43.60
6506;BME280;3286;49.858;8.768;2023-11-22T11:32:31;100426.31;;;5.86;41.92
6506;BME280;3286;49.858;8.768;2023-11-22T11:35:00;100432.28;;;5.74;43.76
6506;BME280;3286;49.858;8.768;2023-11-22T11:37:30;100432.19;;;5.90;40.91
6506;BME280;3286;49.858;8.768;2023-11-22T11:39:58;100439.84;;;5.78;41.34
6506;BME280;3286;49.858;8.768;2023-11-22T11:42:24;100430.91;;;6.13;41.05
6506;BME280;3286;49.858;8.768;2023-11-22T11:45:03;100431.06;;;5.33;41.97
6506;BME280;3286;49.858;8.768;2023-11-22T11:47:32;100427.97;;;5.10;42.73
6506;BME280;3286;49.858;8.768;2023-11-22T11:49:58;100437.38;;;5.61;41.27
6506;BME280;3286;49.858;8.768;2023-11-22T11:52:25;100432.47;;;6.16;41.54
6506;BME280;3286;49.858;8.768;2023-11-22T11:54:52;100446.16;;;6.21;40.29
6506;BME280;3286;49.858;8.768;2023-11-22T11:57:19;100442.50;;;5.62;41.08
6506;BME280;3286;49.858;8.768;2023-11-22T11:59:46;100438.69;;;5.99;40.12
6506;BME280;3286;49.858;8.768;2023-11-22T12:02:16;100435.59;;;6.22;40.33
6506;BME280;3286;49.858;8.768;2023-11-22T12:04:45;100431.53;;;6.31;39.85
6506;BME280;3286;49.858;8.768;2023-11-22T12:07:12;100424.88;;;5.34;41.08
6506;BME280;3286;49.858;8.768;2023-11-22T12:09:38;100425.84;;;5.63;41.34
6506;BME280;3286;49.858;8.768;2023-11-22T12:12:06;100434.16;;;5.86;41.15
6506;BME280;3286;49.858;8.768;2023-11-22T12:14:33;100424.53;;;6.17;41.96
6506;BME280;3286;49.858;8.768;2023-11-22T12:17:00;100421.34;;;6.41;40.97
6506;BME280;3286;49.858;8.768;2023-11-22T12:19:29;100409.72;;;6.60;40.07
6506;BME280;3286;49.858;8.768;2023-11-22T12:21:58;100410.22;;;5.92;40.59
6506;BME280;3286;49.858;8.768;2023-11-22T12:24:25;100408.34;;;5.94;42.16
6506;BME280;3286;49.858;8.768;2023-11-22T12:26:52;100395.16;;;5.19;41.30
6506;BME280;3286;49.858;8.768;2023-11-22T12:29:20;100388.28;;;5.79;41.52
6506;BME280;3286;49.858;8.768;2023-11-22T12:31:49;100390.44;;;5.56;41.76
6506;BME280;3286;49.858;8.768;2023-11-22T12:34:18;100379.84;;;6.33;40.01
6506;BME280;3286;49.858;8.768;2023-11-22T12:36:48;100392.66;;;5.48;42.04
6506;BME280;3286;49.858;8.768;2023-11-22T12:39:15;100394.66;;;6.34;40.24
6506;BME280;3286;49.858;8.768;2023-11-22T12:41:48;100393.22;;;6.14;39.35
6506;BME280;3286;49.858;8.768;2023-11-22T12:44:16;100396.50;;;6.18;40.02
6506;BME280;3286;49.858;8.768;2023-11-22T12:46:47;100396.16;;;5.93;41.63
6506;BME280;3286;49.858;8.768;2023-11-22T12:49:15;100400.19;;;5.99;41.35
6506;BME280;3286;49.858;8.768;2023-11-22T12:51:49;100400.34;;;6.27;41.49
6506;BME280;3286;49.858;8.768;2023-11-22T12:54:16;100391.09;;;6.35;41.25
6506;BME280;3286;49.858;8.768;2023-11-22T12:56:45;100388.34;;;6.37;39.68
6506;BME280;3286;49.858;8.768;2023-11-22T12:59:12;100395.34;;;6.65;38.94
6506;BME280;3286;49.858;8.768;2023-11-22T13:01:38;100393.97;;;6.16;39.74
6506;BME280;3286;49.858;8.768;2023-11-22T13:04:05;100392.56;;;6.54;41.32
6506;BME280;3286;49.858;8.768;2023-11-22T13:06:32;100398.84;;;6.51;42.37
6506;BME280;3286;49.858;8.768;2023-11-22T13:09:00;100400.34;;;6.27;41.33
6506;BME280;3286;49.858;8.768;2023-11-22T13:11:29;100396.16;;;6.38;41.90
6506;BME280;3286;49.858;8.768;2023-11-22T13:13:56;100395.59;;;6.33;40.93
6506;BME280;3286;49.858;8.768;2023-11-22T13:16:22;100385.16;;;6.46;40.23
6506;BME280;3286;49.858;8.768;2023-11-22T13:18:49;100380.31;;;6.26;41.96
6506;BME280;3286;49.858;8.768;2023-11-22T13:21:16;100387.88;;;6.45;41.60
6506;BME280;3286;49.858;8.768;2023-11-22T13:23:42;100389.41;;;6.34;40.77
6506;BME280;3286;49.858;8.768;2023-11-22T13:26:10;100383.78;;;6.41;40.87